Time;durP1;ratioP1;P1;durP2;ratioP2;P2;SDS_P1;SDS_P2;PMS_P1;PMS_P2;Temp;Humidity;BMP_temperature;BMP_pressure;BME280_temperature;BME280_humidity;BME280_pressure;Samples;Min_cycle;Max_cycle;Signal;HPM_P1;HPM_P2
2022/09/12 00:01:49;;;;;;;23.33;14.90;;;;;;;15.34;100.00;101655.69;5087042;28;20024;-73
2022/09/12 00:04:14;;;;;;;18.77;15.57;;;;;;;15.47;100.00;101649.66;5088686;28;20024;-72
2022/09/12 00:06:40;;;;;;;22.08;15.85;;;;;;;15.41;100.00;101660.22;5084958;28;20038;-72
2022/09/12 00:09:09;;;;;;;20.92;15.07;;;;;;;15.36;100.00;101651.31;5077888;28;20045;-72
2022/09/12 00:11:37;;;;;;;19.98;15.32;;;;;;;15.33;100.00;101646.88;5080963;28;20032;-73
2022/09/12 00:14:03;;;;;;;19.23;15.60;;;;;;;15.35;100.00;101646.88;5090264;28;20460;-73
2022/09/12 00:16:32;;;;;;;29.83;18.27;;;;;;;15.43;100.00;101646.97;5072830;28;20077;-73
2022/09/12 00:18:57;;;;;;;25.45;17.52;;;;;;;15.41;100.00;101641.66;5073232;28;20028;-72
2022/09/12 00:21:22;;;;;;;19.63;15.57;;;;;;;15.39;100.00;101646.03;5072659;28;20060;-73
2022/09/12 00:23:49;;;;;;;22.83;16.80;;;;;;;15.38;100.00;101638.94;5072784;28;20078;-72
2022/09/12 00:26:16;;;;;;;23.48;15.77;;;;;;;15.39;100.00;101639.84;5071281;28;20476;-72
2022/09/12 00:28:43;;;;;;;23.48;16.83;;;;;;;15.43;100.00;101645.19;5070949;28;20056;-72
2022/09/12 00:31:14;;;;;;;20.23;14.82;;;;;;;15.42;100.00;101634.56;5071633;28;20031;-73
2022/09/12 00:33:40;;;;;;;24.67;15.82;;;;;;;15.43;100.00;101644.31;5076783;28;20467;-72
2022/09/12 00:36:13;;;;;;;24.75;16.75;;;;;;;15.46;100.00;101634.63;5082814;28;21285;-73
2022/09/12 00:38:40;;;;;;;21.38;15.90;;;;;;;15.45;100.00;101635.50;5070228;28;20082;-73
2022/09/12 00:41:12;;;;;;;22.83;15.18;;;;;;;15.49;100.00;101637.31;5072208;28;20040;-73
2022/09/12 00:43:41;;;;;;;20.95;15.80;;;;;;;15.52;100.00;101642.63;5072463;28;20028;-72
2022/09/12 00:46:31;;;;;;;20.48;15.10;;;;;;;15.50;100.00;101631.13;5070997;28;20531;-72
2022/09/12 00:49:41;;;;;;;22.98;16.45;;;;;;;15.54;100.00;101634.69;5071001;28;20024;-73
2022/09/12 00:52:14;;;;;;;21.23;15.43;;;;;;;15.59;100.00;101634.72;5046164;28;20540;-73
2022/09/12 00:54:50;;;;;;;24.85;17.48;;;;;;;15.61;100.00;101631.22;5071774;28;20079;-73
2022/09/12 00:57:19;;;;;;;21.65;15.95;;;;;;;15.65;100.00;101632.13;5074542;28;20031;-73
2022/09/12 00:59:52;;;;;;;21.25;15.38;;;;;;;15.64;100.00;101630.31;5092853;28;20528;-73
2022/09/12 01:02:18;;;;;;;19.90;15.02;;;;;;;15.62;100.00;101635.63;5073995;28;20066;-72
2022/09/12 01:04:44;;;;;;;23.85;17.00;;;;;;;15.63;100.00;101625.91;5071601;28;20110;-73
2022/09/12 01:07:10;;;;;;;20.83;15.52;;;;;;;15.64;100.00;101619.72;5071053;28;20483;-74
2022/09/12 01:09:36;;;;;;;25.42;16.58;;;;;;;15.65;100.00;101621.50;5071729;28;20050;-72
2022/09/12 01:12:02;;;;;;;24.55;15.38;;;;;;;15.66;100.00;101615.31;5071882;28;20025;-72
2022/09/12 01:14:29;;;;;;;19.45;15.93;;;;;;;15.67;100.00;101615.34;5073164;28;20036;-73
2022/09/12 01:16:55;;;;;;;19.27;15.30;;;;;;;15.62;100.00;101621.47;5072484;28;20041;-74
2022/09/12 01:19:51;;;;;;;19.73;15.60;;;;;;;15.59;100.00;101621.47;5073088;28;20365;-73
2022/09/12 01:22:32;;;;;;;22.40;16.10;;;;;;;15.55;100.00;101619.66;5072721;28;20028;-72
2022/09/12 01:25:24;;;;;;;21.35;15.57;;;;;;;15.52;100.00;101620.53;5071410;28;20100;-72
2022/09/12 01:28:05;;;;;;;20.88;15.27;;;;;;;15.53;100.00;101609.00;5071565;28;20028;-72
2022/09/12 01:30:44;;;;;;;21.50;15.85;;;;;;;15.52;100.00;101610.78;5070505;28;20561;-73
2022/09/12 01:33:31;;;;;;;19.60;14.48;;;;;;;15.48;100.00;101608.13;5077975;28;20020;-72
2022/09/12 01:36:09;;;;;;;21.95;15.20;;;;;;;15.44;100.00;101612.50;5081986;28;20090;-74
2022/09/12 01:38:49;;;;;;;24.33;16.48;;;;;;;15.43;100.00;101605.41;5083585;28;20198;-72
2022/09/12 01:41:23;;;;;;;23.23;15.02;;;;;;;15.40;100.00;101604.50;5093982;28;20069;-72
2022/09/12 01:43:54;;;;;;;20.60;15.40;;;;;;;15.40;100.00;101605.38;5091568;28;20446;-74
2022/09/12 01:46:42;;;;;;;23.15;15.60;;;;;;;15.36;100.00;101598.28;5084809;28;20024;-73
2022/09/12 01:49:17;;;;;;;22.30;15.35;;;;;;;15.35;100.00;101591.19;5087253;28;20024;-72
2022/09/12 01:52:03;;;;;;;20.30;16.02;;;;;;;15.40;100.00;101585.94;5060582;28;20024;-72
2022/09/12 01:54:46;;;;;;;22.73;15.75;;;;;;;15.39;100.00;101582.38;5044032;28;20044;-73
2022/09/12 01:57:19;;;;;;;20.67;14.82;;;;;;;15.33;100.00;101579.69;5082927;28;20032;-73
2022/09/12 01:59:49;;;;;;;26.15;14.95;;;;;;;15.28;100.00;101581.41;5082090;28;20419;-73
2022/09/12 02:02:17;;;;;;;20.23;15.00;;;;;;;15.25;100.00;101584.03;5074278;28;20024;-73
2022/09/12 02:05:13;;;;;;;21.27;15.55;;;;;;;15.20;100.00;101575.16;5082695;28;20028;-72
2022/09/12 02:07:58;;;;;;;21.00;14.95;;;;;;;15.20;100.00;101572.50;5086273;28;20123;-72
2022/09/12 02:10:28;;;;;;;24.95;14.55;;;;;;;15.17;100.00;101571.59;5075447;28;20025;-73
2022/09/12 02:13:00;;;;;;;23.60;15.32;;;;;;;15.15;100.00;101568.06;5074361;28;20451;-72
2022/09/12 02:15:31;;;;;;;21.67;14.38;;;;;;;15.13;100.00;101575.09;5081511;28;20048;-73
2022/09/12 02:18:03;;;;;;;19.90;15.25;;;;;;;15.12;100.00;101561.81;5087291;28;20032;-73
2022/09/12 02:20:32;;;;;;;20.05;15.23;;;;;;;15.12;100.00;101568.00;5074533;28;20059;-71
2022/09/12 02:22:59;;;;;;;19.67;13.98;;;;;;;15.12;100.00;101561.81;5076360;28;20048;-72
2022/09/12 02:25:28;;;;;;;20.70;15.60;;;;;;;15.11;100.00;101560.94;5068340;28;20497;-73
2022/09/12 02:28:03;;;;;;;26.38;16.10;;;;;;;15.07;100.00;101553.84;5074139;28;20040;-74
2022/09/12 02:30:38;;;;;;;20.70;15.20;;;;;;;15.05;100.00;101552.91;5075303;28;20028;-72
2022/09/12 02:33:23;;;;;;;22.70;15.43;;;;;;;15.08;100.00;101544.09;5081895;28;20024;-72
2022/09/12 02:36:01;;;;;;;20.05;15.88;;;;;;;15.08;100.00;101547.63;5075021;28;20032;-73
2022/09/12 02:38:34;;;;;;;17.98;14.40;;;;;;;15.11;100.00;101545.03;5084389;28;20024;-73
2022/09/12 02:40:59;;;;;;;22.63;15.30;;;;;;;15.13;100.00;101540.63;5075137;28;20028;-73
2022/09/12 02:43:25;;;;;;;24.25;15.05;;;;;;;15.12;100.00;101546.78;5077190;28;20028;-73
2022/09/12 02:45:50;;;;;;;27.50;15.45;;;;;;;15.17;100.00;101538.91;5080301;28;20357;-72
2022/09/12 02:48:22;;;;;;;22.40;14.23;;;;;;;15.21;100.00;101540.69;5084876;28;20036;-73
2022/09/12 02:50:48;;;;;;;19.77;14.13;;;;;;;15.23;100.00;101546.88;5087436;28;20035;-73
2022/09/12 02:53:14;;;;;;;23.67;15.40;;;;;;;15.26;100.00;101546.03;5090909;28;20121;-73
2022/09/12 02:55:41;;;;;;;24.38;15.40;;;;;;;15.29;100.00;101540.78;5074579;28;20024;-73
2022/09/12 02:58:15;;;;;;;25.05;15.73;;;;;;;15.33;100.00;101539.91;5081223;28;20085;-71
2022/09/12 03:00:56;;;;;;;21.15;15.00;;;;;;;15.33;100.00;101535.50;5074067;28;20016;-73
2022/09/12 03:03:45;;;;;;;22.17;15.70;;;;;;;15.37;100.00;101535.50;5084065;28;20036;-72
2022/09/12 03:06:19;;;;;;;23.48;15.90;;;;;;;15.40;100.00;101530.25;5094222;28;20095;-73
2022/09/12 03:08:59;;;;;;;;;;;;;;;15.38;100.00;101522.25;5087636;28;20048;-72
2022/09/12 03:11:55;;;;;;;22.33;15.45;;;;;;;15.39;100.00;101523.16;5073443;28;19924;-73
2022/09/12 03:14:29;;;;;;;23.17;15.00;;;;;;;15.41;100.00;101521.41;5082724;28;20024;-72
2022/09/12 03:17:23;;;;;;;22.05;14.60;;;;;;;15.42;100.00;101523.19;5079172;28;20390;-72
2022/09/12 03:20:09;;;;;;;22.17;14.02;;;;;;;15.42;100.00;101510.78;5074217;28;20024;-73
2022/09/12 03:22:44;;;;;;;23.20;15.63;;;;;;;15.40;100.00;101519.66;5085652;28;20504;-72
2022/09/12 03:25:26;;;;;;;19.83;13.60;;;;;;;15.41;100.00;101511.69;5074127;28;20107;-72
2022/09/12 03:27:52;;;;;;;20.13;14.73;;;;;;;15.40;100.00;101511.69;5059606;28;20062;-72
2022/09/12 03:30:17;;;;;;;23.02;15.65;;;;;;;15.39;100.00;101518.75;5073709;28;20460;-72
2022/09/12 03:32:48;;;;;;;23.77;16.10;;;;;;;15.39;100.00;101510.78;5078080;28;20036;-72
2022/09/12 03:35:16;;;;;;;23.42;15.32;;;;;;;15.40;100.00;101515.22;5085769;28;20025;-72
2022/09/12 03:37:41;;;;;;;21.33;15.85;;;;;;;15.39;100.00;101502.81;5074562;28;20036;-73
2022/09/12 03:40:08;;;;;;;22.95;15.75;;;;;;;15.40;100.00;101511.69;5073900;28;20035;-73
2022/09/12 03:42:34;;;;;;;22.02;15.48;;;;;;;15.37;100.00;101504.59;5055279;28;20400;-72
2022/09/12 03:44:59;;;;;;;23.67;15.90;;;;;;;15.37;100.00;101507.25;5073220;28;20024;-72
2022/09/12 03:47:24;;;;;;;22.23;15.90;;;;;;;15.37;100.00;101509.91;5073354;28;20039;-72
2022/09/12 03:49:51;;;;;;;25.05;16.35;;;;;;;15.37;100.00;101504.59;5073335;28;20031;-72
2022/09/12 03:52:17;;;;;;;24.48;16.63;;;;;;;15.36;100.00;101501.94;5072009;28;20060;-72
2022/09/12 03:54:42;;;;;;;28.65;17.02;;;;;;;15.33;100.00;101508.09;5073260;28;20024;-73
2022/09/12 03:57:08;;;;;;;25.20;15.98;;;;;;;15.32;100.00;101512.50;5072485;28;20047;-72
2022/09/12 03:59:33;;;;;;;27.83;15.25;;;;;;;15.31;100.00;101502.78;5072900;28;20111;-72
2022/09/12 04:01:58;;;;;;;23.05;16.02;;;;;;;15.30;100.00;101508.06;5088777;28;20028;-73
2022/09/12 04:04:24;;;;;;;24.63;15.48;;;;;;;15.30;100.00;101503.66;5079561;28;20102;-73
2022/09/12 04:06:49;;;;;;;18.50;12.93;;;;;;;15.28;100.00;101500.09;5074482;28;20449;-73
2022/09/12 04:09:15;;;;;;;21.52;15.32;;;;;;;15.27;100.00;101497.44;5090312;28;22741;-73
2022/09/12 04:11:40;;;;;;;21.70;15.10;;;;;;;15.26;100.00;101500.94;5076974;28;20028;-72
2022/09/12 04:14:05;;;;;;;28.20;15.73;;;;;;;15.25;100.00;101500.06;5076759;28;20039;-73
2022/09/12 04:16:31;;;;;;;27.38;16.08;;;;;;;15.24;100.00;101498.28;5074859;28;20365;-71
2022/09/12 04:18:57;;;;;;;25.00;16.35;;;;;;;15.23;100.00;101511.53;5084016;28;20032;-72
2022/09/12 04:21:23;;;;;;;28.63;16.33;;;;;;;15.22;100.00;101500.06;5083468;28;20081;-73
2022/09/12 04:23:48;;;;;;;24.88;16.33;;;;;;;15.20;100.00;101504.44;5090406;28;20024;-72
2022/09/12 04:26:16;;;;;;;21.98;16.20;;;;;;;15.17;100.00;101507.97;5080454;28;20020;-74
2022/09/12 04:28:42;;;;;;;24.45;16.55;;;;;;;15.15;100.00;101509.72;5072971;28;20020;-72
2022/09/12 04:31:12;;;;;;;43.45;22.83;;;;;;;15.12;100.00;101506.16;5079216;28;20039;-72
2022/09/12 04:33:38;;;;;;;39.53;19.60;;;;;;;15.09;100.00;101506.13;5092380;28;20064;-73
2022/09/12 04:36:15;;;;;;;25.92;18.20;;;;;;;15.08;100.00;101486.66;5084286;28;20530;-73
2022/09/12 04:38:42;;;;;;;29.95;18.45;;;;;;;15.04;100.00;101510.50;5083984;28;20039;-71
2022/09/12 04:41:21;;;;;;;26.45;17.77;;;;;;;15.03;100.00;101503.41;5072202;28;20460;-72
2022/09/12 04:43:51;;;;;;;25.60;18.10;;;;;;;15.01;100.00;101500.75;5073379;28;20036;-73
2022/09/12 04:46:19;;;;;;;27.92;18.38;;;;;;;14.99;100.00;101505.19;5080286;28;20062;-72
2022/09/12 04:48:45;;;;;;;26.88;18.15;;;;;;;14.97;100.00;101509.56;5079037;28;20074;-72
2022/09/12 04:51:16;;;;;;;26.55;17.67;;;;;;;14.95;100.00;101500.72;5060257;28;20055;-72
2022/09/12 04:53:46;;;;;;;25.83;17.27;;;;;;;14.91;100.00;101499.78;5078529;28;20028;-72
2022/09/12 04:56:11;;;;;;;29.33;18.08;;;;;;;14.86;100.00;101498.84;5072339;28;20150;-72
2022/09/12 04:58:37;;;;;;;27.98;18.30;;;;;;;14.83;100.00;101507.66;5082033;28;20112;-73
2022/09/12 05:01:09;;;;;;;27.48;18.23;;;;;;;14.80;100.00;101507.63;5082679;28;20016;-73
2022/09/12 05:03:37;;;;;;;24.73;17.40;;;;;;;14.73;100.00;101499.59;5062318;28;20040;-72
2022/09/12 05:06:05;;;;;;;26.80;18.23;;;;;;;14.66;100.00;101504.88;5067034;28;20051;-73
2022/09/12 05:08:30;;;;;;;23.77;17.80;;;;;;;14.63;100.00;101499.50;5086675;28;20052;-73
2022/09/12 05:10:56;;;;;;;32.10;19.08;;;;;;;14.60;100.00;101496.81;5064799;28;20017;-73
2022/09/12 05:13:21;;;;;;;27.88;19.17;;;;;;;14.62;100.00;101496.81;5074993;28;20119;-73
2022/09/12 05:15:54;;;;;;;31.77;20.55;;;;;;;14.62;100.00;101507.41;5061480;28;20021;-73
2022/09/12 05:18:20;;;;;;;26.98;18.75;;;;;;;14.59;100.00;101499.44;5082725;28;20028;-73
2022/09/12 05:20:45;;;;;;;31.90;20.50;;;;;;;14.58;100.00;101490.63;5071836;28;20016;-73
2022/09/12 05:23:11;;;;;;;29.35;19.95;;;;;;;14.60;100.00;101490.63;5070094;28;20517;-72
2022/09/12 05:25:36;;;;;;;26.65;18.40;;;;;;;14.59;100.00;101484.44;5090275;28;20028;-72
2022/09/12 05:28:01;;;;;;;29.75;19.75;;;;;;;14.61;100.00;101479.13;5077566;28;20024;-74
2022/09/12 05:30:27;;;;;;;35.97;21.52;;;;;;;14.60;100.00;101480.03;5077829;28;20024;-73
2022/09/12 05:32:52;;;;;;;35.03;20.90;;;;;;;14.63;100.00;101475.66;5090353;28;20111;-73
2022/09/12 05:35:17;;;;;;;29.10;19.02;;;;;;;14.64;100.00;101476.56;5093667;28;20024;-73
2022/09/12 05:37:43;;;;;;;31.30;19.10;;;;;;;14.63;100.00;101473.03;5084183;28;20036;-73
2022/09/12 05:40:08;;;;;;;30.05;19.33;;;;;;;14.62;100.00;101468.59;5074494;28;20021;-72
2022/09/12 05:42:34;;;;;;;38.13;20.77;;;;;;;14.58;100.00;101466.78;5078290;28;20028;-73
2022/09/12 05:44:59;;;;;;;34.78;19.42;;;;;;;14.60;100.00;101478.25;5075114;28;20020;-73
2022/09/12 05:47:24;;;;;;;33.83;20.52;;;;;;;14.60;100.00;101474.75;5076765;28;20070;-73
2022/09/12 05:49:51;;;;;;;29.63;18.88;;;;;;;14.62;100.00;101475.63;5087386;28;20032;-72
2022/09/12 05:52:16;;;;;;;32.97;20.13;;;;;;;14.62;100.00;101486.22;5071996;28;20048;-69
2022/09/12 05:54:42;;;;;;;32.35;20.20;;;;;;;14.59;100.00;101488.84;5073344;28;20329;-69
2022/09/12 05:57:07;;;;;;;33.22;19.65;;;;;;;14.56;100.00;101484.41;5075290;28;20369;-70
2022/09/12 05:59:33;;;;;;;39.92;21.10;;;;;;;14.58;100.00;101495.00;5073859;28;20090;-70
2022/09/12 06:01:59;;;;;;;37.90;20.83;;;;;;;14.57;100.00;101491.47;5075784;28;20032;-69
2022/09/12 06:04:25;;;;;;;36.10;21.80;;;;;;;14.59;100.00;101480.91;5072576;28;20029;-68
2022/09/12 06:06:50;;;;;;;30.90;19.67;;;;;;;14.61;100.00;101490.63;5071674;28;20028;-69
2022/09/12 06:09:16;;;;;;;31.13;19.23;;;;;;;14.62;100.00;101483.56;5034973;28;20485;-70
2022/09/12 06:11:43;;;;;;;35.60;21.90;;;;;;;14.65;100.00;101481.88;5055281;28;20647;-69
2022/09/12 06:14:11;;;;;;;32.67;20.58;;;;;;;14.68;100.00;101488.97;5051871;28;20029;-69
2022/09/12 06:16:37;;;;;;;34.80;19.67;;;;;;;14.70;100.00;101479.28;5051910;28;20036;-69
2022/09/12 06:19:05;;;;;;;31.75;20.65;;;;;;;14.75;100.00;101477.56;5054763;28;20029;-69
2022/09/12 06:21:34;;;;;;;35.72;20.75;;;;;;;14.79;100.00;101474.06;5055226;28;20032;-68
2022/09/12 06:24:00;;;;;;;28.67;18.67;;;;;;;14.84;100.00;101469.69;5053733;28;20087;-68
2022/09/12 06:26:26;;;;;;;31.00;20.55;;;;;;;14.91;100.00;101475.06;5052465;28;20033;-69
2022/09/12 06:28:53;;;;;;;33.97;21.52;;;;;;;14.95;100.00;101466.28;5054274;28;20532;-68
2022/09/12 06:31:32;;;;;;;32.03;19.83;;;;;;;15.00;100.00;101468.09;5041115;28;20040;-69
2022/09/12 06:34:00;;;;;;;35.58;19.60;;;;;;;15.07;100.00;101463.72;5056093;28;20036;-68
2022/09/12 06:36:28;;;;;;;32.35;20.63;;;;;;;15.12;100.00;101469.91;5050899;28;20090;-67
2022/09/12 06:38:56;;;;;;;35.28;20.35;;;;;;;15.19;100.00;101468.19;5064394;28;20032;-68
2022/09/12 06:41:23;;;;;;;29.77;18.98;;;;;;;15.24;100.00;101469.13;5056908;28;20566;-69
2022/09/12 06:43:49;;;;;;;29.98;19.00;;;;;;;15.31;100.00;101472.72;5066359;28;20186;-68
2022/09/12 06:46:14;;;;;;;33.03;20.63;;;;;;;15.37;100.00;101477.16;5054255;28;20021;-68
2022/09/12 06:48:39;;;;;;;32.22;19.27;;;;;;;15.40;100.00;101470.13;5054219;28;20063;-69
2022/09/12 06:51:08;;;;;;;28.02;18.45;;;;;;;15.47;100.00;101479.03;5053592;28;20431;-69
2022/09/12 06:53:35;;;;;;;32.10;19.67;;;;;;;15.54;100.00;101482.59;5053631;28;20036;-69
2022/09/12 06:56:06;;;;;;;32.58;18.15;;;;;;;15.59;100.00;101478.22;5052712;28;20388;-69
2022/09/12 06:58:33;;;;;;;31.38;18.15;;;;;;;15.63;100.00;101477.34;5053080;28;20029;-69
2022/09/12 07:01:04;;;;;;;24.98;15.93;;;;;;;15.70;100.00;101476.50;5054304;28;20100;-69
2022/09/12 07:03:31;;;;;;;29.85;17.63;;;;;;;15.76;100.00;101484.50;5052975;28;20082;-70
2022/09/12 07:05:56;;;;;;;29.25;18.25;;;;;;;15.81;100.00;101480.13;5052469;28;20036;-69
2022/09/12 07:08:22;;;;;;;28.48;17.88;;;;;;;15.87;100.00;101481.03;5064880;28;20044;-68
2022/09/12 07:10:47;;;;;;;31.15;17.83;;;;;;;15.90;100.00;101494.31;5073104;28;20043;-69
2022/09/12 07:13:13;;;;;;;29.73;18.58;;;;;;;15.93;100.00;101494.34;5072817;28;20035;-69
2022/09/12 07:15:38;;;;;;;28.23;18.77;;;;;;;16.00;100.00;101491.72;5055012;28;20466;-68
2022/09/12 07:18:04;;;;;;;29.38;18.80;;;;;;;16.05;100.00;101489.09;5073720;28;20029;-69
2022/09/12 07:20:31;;;;;;;31.98;19.05;;;;;;;16.11;100.00;101486.44;5073523;28;20021;-68
2022/09/12 07:22:57;;;;;;;28.05;18.02;;;;;;;16.19;100.00;101490.00;5073783;28;20043;-70
2022/09/12 07:25:22;;;;;;;27.92;18.42;;;;;;;16.30;100.00;101486.53;5073698;28;20025;-68
2022/09/12 07:27:48;;;;;;;28.98;17.20;;;;;;;16.38;100.00;101491.88;5073758;28;20031;-69
2022/09/12 07:30:13;;;;;;;29.45;18.50;;;;;;;16.48;100.00;101489.25;5072969;28;20032;-73
2022/09/12 07:32:38;;;;;;;28.40;18.17;;;;;;;16.59;100.00;101477.72;5073205;28;20032;-74
2022/09/12 07:35:04;;;;;;;34.50;18.55;;;;;;;16.68;100.00;101485.72;5073891;28;20030;-73
2022/09/12 07:37:30;;;;;;;33.13;18.77;;;;;;;16.79;100.00;101476.00;5073437;28;20036;-72
2022/09/12 07:39:56;;;;;;;26.38;18.08;;;;;;;16.88;100.00;101487.53;5073758;28;20047;-71
2022/09/12 07:42:22;;;;;;;26.42;17.67;;;;;;;16.95;100.00;101487.56;5072846;28;20028;-72
2022/09/12 07:44:47;;;;;;;32.80;18.05;;;;;;;17.03;100.00;101484.91;5073530;28;20028;-72
2022/09/12 07:47:13;;;;;;;31.10;17.58;;;;;;;17.09;100.00;101484.91;5073800;28;20035;-72
2022/09/12 07:49:38;;;;;;;24.30;15.80;;;;;;;17.18;100.00;101484.88;5072835;28;20639;-72
2022/09/12 07:52:03;;;;;;;23.10;16.50;;;;;;;17.28;100.00;101492.88;5078271;28;20467;-71
2022/09/12 07:54:29;;;;;;;28.98;16.52;;;;;;;17.36;100.00;101486.66;5093692;28;20097;-71
2022/09/12 07:56:54;;;;;;;23.80;15.43;;;;;;;17.42;100.00;101488.44;5082387;28;20031;-70
2022/09/12 07:59:19;;;;;;;29.55;17.17;;;;;;;17.48;100.00;101485.75;5073334;28;20058;-70
2022/09/12 08:01:45;;;;;;;26.08;14.45;;;;;;;17.55;100.00;101485.75;5073460;28;20111;-71
2022/09/12 08:04:10;;;;;;;28.55;15.45;;;;;;;17.63;100.00;101486.59;5072736;28;20425;-71
2022/09/12 08:06:36;;;;;;;22.52;14.23;;;;;;;17.68;100.00;101487.50;5073222;28;20024;-72
2022/09/12 08:09:02;;;;;;;20.77;14.50;;;;;;;17.76;100.00;101490.13;5054863;28;20056;-71
2022/09/12 08:11:28;;;;;;;23.10;14.30;;;;;;;17.83;100.00;101490.09;5052910;28;20028;-71
2022/09/12 08:13:56;;;;;;;22.30;13.82;;;;;;;17.95;100.00;101493.66;5055025;28;20109;-72
2022/09/12 08:16:24;;;;;;;21.77;14.00;;;;;;;18.08;100.00;101492.72;5053367;28;20051;-71
2022/09/12 08:18:50;;;;;;;21.17;14.43;;;;;;;18.16;100.00;101488.25;5053368;28;20032;-71
2022/09/12 08:21:20;;;;;;;20.38;14.05;;;;;;;18.30;100.00;101493.50;5053410;28;20021;-72
2022/09/12 08:23:50;;;;;;;22.63;13.95;;;;;;;18.40;100.00;101499.66;5035135;28;20028;-72
2022/09/12 08:26:15;;;;;;;21.13;13.32;;;;;;;18.46;100.00;101488.06;5051879;28;20082;-72
2022/09/12 08:28:45;;;;;;;24.48;13.35;;;;;;;18.51;100.00;101492.47;5051908;28;20488;-72
2022/09/12 08:31:13;;;;;;;20.20;13.57;;;;;;;18.61;100.00;101485.34;5053262;28;20021;-72
2022/09/12 08:33:39;;;;;;;16.10;11.20;;;;;;;18.69;100.00;101490.59;5033048;28;20457;-72
2022/09/12 08:36:10;;;;;;;15.77;9.98;;;;;;;18.81;100.00;101478.97;5043133;28;20118;-71
2022/09/12 08:38:38;;;;;;;13.70;9.43;;;;;;;18.87;100.00;101486.94;5052997;28;20376;-71
2022/09/12 08:41:13;;;;;;;16.45;9.88;;;;;;;18.98;100.00;101487.75;5053010;28;20411;-71
2022/09/12 08:44:08;;;;;;;14.02;9.80;;;;;;;19.11;100.00;101487.66;5051279;28;20104;-72
2022/09/12 08:46:56;;;;;;;16.38;8.95;;;;;;;19.24;100.00;101488.44;5015325;28;20361;-72
2022/09/12 08:49:33;;;;;;;15.77;7.80;;;;;;;19.36;100.00;101485.66;5033878;28;20021;-71
2022/09/12 08:52:05;;;;;;;13.35;5.45;;;;;;;19.43;100.00;101487.34;5037266;28;20108;-71
2022/09/12 08:54:32;;;;;;;8.05;5.82;;;;;;;19.46;100.00;101489.09;5019455;28;20033;-71
2022/09/12 08:57:03;;;;;;;5.85;4.63;;;;;;;19.54;100.00;101488.13;5037074;28;20381;-70
2022/09/12 08:59:38;;;;;;;8.13;5.47;;;;;;;19.55;100.00;101489.91;5044152;28;20507;-70
2022/09/12 09:02:15;;;;;;;9.35;5.25;;;;;;;19.62;100.00;101493.38;5056281;28;20106;-70
2022/09/12 09:04:56;;;;;;;6.20;5.07;;;;;;;19.72;100.00;101486.16;5056741;28;20029;-71
2022/09/12 09:07:42;;;;;;;6.88;5.22;;;;;;;19.82;100.00;101490.53;5060871;28;20051;-71
2022/09/12 09:10:37;;;;;;;8.27;5.47;;;;;;;19.97;100.00;101486.78;5076610;28;20028;-71
2022/09/12 09:16:29;;;;;;;5.60;5.00;;;;;;;20.16;100.00;101474.09;5076687;28;20511;-71
2022/09/12 09:18:58;;;;;;;9.18;4.78;;;;;;;20.32;100.00;101471.19;5076603;28;20032;-70
2022/09/12 09:21:37;;;;;;;8.07;5.30;;;;;;;20.46;100.00;101468.34;5076552;28;20459;-72
2022/09/12 09:24:11;;;;;;;9.00;5.30;;;;;;;20.57;100.00;101476.22;5076477;28;20063;-72
2022/09/12 09:26:55;;;;;;;8.82;5.35;;;;;;;20.56;100.00;101464.59;5076579;28;20113;-72
2022/09/12 09:29:25;;;;;;;7.15;4.85;;;;;;;20.77;100.00;101476.81;5062413;28;20028;-72
2022/09/12 09:31:57;;;;;;;8.70;4.82;;;;;;;20.72;100.00;101467.97;5075714;28;20115;-72
2022/09/12 09:34:28;;;;;;;9.27;5.35;;;;;;;20.91;100.00;101459.66;5074600;28;20104;-73
2022/09/12 09:36:54;;;;;;;8.05;4.25;;;;;;;21.06;100.00;101456.72;5076068;28;20032;-72
2022/09/12 09:39:44;;;;;;;8.03;4.67;;;;;;;21.04;100.00;101446.03;5075354;28;20028;-71
2022/09/12 09:42:18;;;;;;;7.47;4.53;;;;;;;21.12;100.00;101445.91;5055994;28;20278;-71
2022/09/12 09:44:47;;;;;;;6.43;4.35;;;;;;;21.28;100.00;101449.16;5069896;28;20036;-70
2022/09/12 09:47:12;;;;;;;5.90;3.78;;;;;;;21.43;100.00;101436.41;5075819;28;20025;-71
2022/09/12 09:49:38;;;;;;;6.45;3.60;;;;;;;21.46;100.00;101437.25;5075204;28;20058;-72
2022/09/12 09:52:07;;;;;;;5.68;3.28;;;;;;;21.64;100.00;101441.38;5074431;28;20058;-72
2022/09/12 09:54:40;;;;;;;7.45;3.90;;;;;;;21.69;100.00;101436.81;5056583;28;20032;-71
2022/09/12 09:57:33;;;;;;;6.32;3.53;;;;;;;21.72;96.21;101436.75;5075063;28;20028;-72
2022/09/12 10:00:17;;;;;;;;;;;;;;;21.68;95.43;101437.72;5075763;28;20028;-71
2022/09/12 10:03:15;;;;;;;5.85;3.75;;;;;;;21.83;100.00;101436.53;5073867;28;20459;-72
2022/09/12 10:06:05;;;;;;;7.78;3.90;;;;;;;21.78;97.32;101425.03;5055108;28;20037;-71
2022/09/12 10:08:36;;;;;;;5.20;3.50;;;;;;;22.09;99.07;101419.00;5055197;28;20107;-71
2022/09/12 10:11:13;;;;;;;6.13;3.83;;;;;;;22.25;95.94;101422.22;5073288;28;20071;-71
2022/09/12 10:13:48;;;;;;;6.75;4.38;;;;;;;22.05;98.58;101422.69;5076814;28;20452;-72
2022/09/12 10:16:21;;;;;;;10.85;5.20;;;;;;;21.92;99.07;101426.53;5056924;28;20055;-72
2022/09/12 10:18:49;;;;;;;5.22;4.45;;;;;;;21.96;100.00;101422.88;5074745;28;20063;-73
2022/09/12 10:21:19;;;;;;;5.00;4.03;;;;;;;21.92;100.00;101418.50;5075060;28;20033;-72
2022/09/12 10:23:49;;;;;;;10.63;4.88;;;;;;;22.02;100.00;101409.34;5074981;28;20029;-73
2022/09/12 10:26:18;;;;;;;5.43;3.50;;;;;;;22.14;90.52;101406.38;5074962;28;20020;-72
2022/09/12 10:28:52;;;;;;;4.38;3.20;;;;;;;22.19;87.75;101409.84;5075006;28;20032;-72
2022/09/12 10:31:50;;;;;;;8.48;3.20;;;;;;;22.39;87.77;101397.81;5073839;28;20119;-72
2022/09/12 10:34:41;;;;;;;5.55;2.28;;;;;;;22.73;87.40;101397.88;5063541;28;20035;-72
2022/09/12 10:37:08;;;;;;;5.00;2.53;;;;;;;23.03;83.29;101406.03;5074764;28;20404;-73
2022/09/12 10:39:37;;;;;;;3.58;2.38;;;;;;;23.26;81.97;101417.09;5073653;28;20064;-72
2022/09/12 10:42:04;;;;;;;2.78;2.20;;;;;;;23.17;76.16;101408.38;5072893;28;20107;-72
2022/09/12 10:44:32;;;;;;;3.90;2.20;;;;;;;23.31;78.36;101409.81;5073870;28;20031;-72
2022/09/12 10:46:59;;;;;;;3.78;2.58;;;;;;;23.15;78.17;101406.66;5074483;28;20365;-72
2022/09/12 10:49:30;;;;;;;3.88;2.60;;;;;;;23.20;78.52;101402.91;5074070;28;20028;-72
2022/09/12 10:52:14;;;;;;;2.42;2.00;;;;;;;23.26;77.35;101406.38;5074577;28;20472;-71
2022/09/12 10:54:39;;;;;;;3.83;2.20;;;;;;;23.49;77.73;101406.59;5074378;28;20028;-72
2022/09/12 10:57:20;;;;;;;5.22;2.40;;;;;;;23.61;73.70;101408.06;5074453;28;20523;-72
2022/09/12 11:00:18;;;;;;;7.60;2.40;;;;;;;23.78;75.57;101415.63;5074194;28;20032;-71
2022/09/12 11:02:50;;;;;;;4.07;2.40;;;;;;;23.88;76.11;101410.84;5073993;28;20027;-71
2022/09/12 11:05:35;;;;;;;2.80;2.30;;;;;;;23.91;74.71;101405.41;5074159;28;20104;-71
2022/09/12 11:08:21;;;;;;;3.97;2.15;;;;;;;24.05;73.74;101408.56;5063379;28;20404;-71
2022/09/12 11:10:58;;;;;;;3.55;2.40;;;;;;;23.79;78.68;101398.56;5053742;28;20031;-72
2022/09/12 11:13:49;;;;;;;5.15;2.60;;;;;;;23.79;75.02;101395.88;5053677;28;20108;-72
2022/09/12 11:16:26;;;;;;;4.38;2.40;;;;;;;23.87;78.53;101404.59;5053756;28;20033;-72
2022/09/12 11:19:16;;;;;;;5.32;3.03;;;;;;;24.12;76.99;101392.22;5053490;28;20503;-72
2022/09/12 11:22:08;;;;;;;7.80;4.00;;;;;;;24.03;75.49;101378.16;5053741;28;20464;-72
2022/09/12 11:24:55;;;;;;;4.03;2.42;;;;;;;24.29;73.56;101394.41;5053614;28;20037;-73
2022/09/12 11:28:02;;;;;;;7.22;3.13;;;;;;;24.09;73.67;101387.81;5053340;28;20044;-72
2022/09/12 11:30:38;;;;;;;4.00;2.88;;;;;;;24.33;74.93;101409.50;5053730;28;20029;-72